Terminal Aerodrome Forecast
Issued by NWS Portland, OR

Home | Current Version | Previous Version | Text Only | Print | Product List | Glossary On
Versions: 1 2 3 4 5 6 7 8 9 10 11 12 13 14 15 16 17 18 19 20 21 22 23 24
000
FTUS46 KPQR 301745
TAFHIO
TAF
KHIO 301745Z 3018/3118 36004KT P6SM BKN050 OVC060
     FM302300 10003KT 6SM -RA BR BKN050
     FM310300 10005KT 5SM -RA BR SCT025 BKN050
     FM311200 22005KT P6SM -RA BKN025=

USA.gov is the U.S. government's official web portal to all federal, state and local government web resources and services.